Stations météo

Publicité
Sabadell Airport, Espagne (2008420): Température de l'air & dewpoint: 17.02.2019 23:00:00 - 23.02.2019 23:00:00 (CET)Sabadell Airport, Espagne (2008420): Vitesse du vent: 17.02.2019 23:00:00 - 23.02.2019 23:00:00 (CET)Sabadell Airport, Espagne (2008420): Direction du vent: 17.02.2019 23:00:00 - 23.02.2019 23:00:00 (CET)Sabadell Airport, Espagne (2008420): visibility: 17.02.2019 23:00:00 - 23.02.2019 23:00:00 (CET)
Date & Time tt [°C] td [°C] ff [km/h] ff [knt] dd vv [km]
23.02.2019 23:00:00 9,0 6,0 5 3 NW 10
23.02.2019 22:00:00 8,0 6,0 11 6 W 10
23.02.2019 21:00:00 11,0 7,0 2 1 - 10
23.02.2019 20:00:00 11,0 8,0 5 3 W 10
23.02.2019 19:00:00 13,0 9,0 4 2 - 10
23.02.2019 18:00:00 15,0 8,0 15 8 SE 10
23.02.2019 17:00:00 16,0 8,0 18 10 SE 10
23.02.2019 16:00:00 17,0 9,0 24 13 SE 10
23.02.2019 15:00:00 21,0 4,0 4 2 SSE 10
23.02.2019 14:00:00 21,0 4,0 8 4 S 10
23.02.2019 13:00:00 21,0 6,0 0 0 N 10
23.02.2019 12:00:00 18,0 7,0 2 1 E 10
23.02.2019 11:00:00 14,0 6,0 2 1 ENE 10
23.02.2019 10:00:00 12,0 4,0 2 1 ESE 10
23.02.2019 09:00:00 7,0 4,0 0 0 N 10
23.02.2019 08:00:00 5,0 2,0 4 2 WNW 10
23.02.2019 07:00:00 5,0 2,0 4 2 - 10
23.02.2019 06:00:00 6,0 3,0 5 3 WNW 10
23.02.2019 05:00:00 6,0 3,0 2 1 - 10
23.02.2019 04:00:00 7,0 4,0 4 2 WNW 10
23.02.2019 03:00:00 8,0 4,0 5 3 WNW 10
23.02.2019 02:00:00 8,0 4,0 8 4 WNW 10
23.02.2019 01:00:00 8,0 4,0 5 3 WNW 10
23.02.2019 00:00:00 9,0 3,0 4 2 NNW 10
22.02.2019 23:00:00 11,0 3,0 8 4 NW 10
22.02.2019 22:00:00 12,0 4,0 9 5 WNW 10
22.02.2019 21:00:00 14,0 4,0 9 5 WNW 10
22.02.2019 20:00:00 15,0 5,0 9 5 WNW 10
22.02.2019 19:00:00 17,0 5,0 4 2 - 10
22.02.2019 18:00:00 22,0 5,0 5 3 SW 10
22.02.2019 17:00:00 23,0 5,0 11 6 W 10
22.02.2019 16:00:00 23,0 5,0 9 5 WSW 10
22.02.2019 15:00:00 23,0 3,0 9 5 WSW 10
22.02.2019 14:00:00 22,0 3,0 13 7 W 10
22.02.2019 13:00:00 20,0 3,0 8 4 W 10
22.02.2019 12:00:00 18,0 7,0 8 4 W 10
22.02.2019 11:00:00 14,0 7,0 4 2 - 10
22.02.2019 10:00:00 11,0 6,0 2 1 ESE 10
22.02.2019 09:00:00 7,0 5,0 0 0 N 9
22.02.2019 08:00:00 3,0 2,0 4 2 - 8
22.02.2019 07:00:00 3,0 2,0 4 2 - 4,5
22.02.2019 06:00:00 3,0 2,0 2 1 - 6
22.02.2019 05:00:00 4,0 4,0 2 1 NNE 3,7
22.02.2019 04:00:00 4,0 3,0 2 1 - 4,4
22.02.2019 03:00:00 5,0 4,0 0 0 N 3,8
22.02.2019 02:00:00 6,0 6,0 2 1 - 3,1
22.02.2019 01:00:00 7,0 6,0 4 2 W 3,3
22.02.2019 00:00:00 9,0 8,0 4 2 W 4,2
21.02.2019 23:00:00 9,0 8,0 4 2 - 6
21.02.2019 22:00:00 10,0 8,0 4 2 - 8
21.02.2019 21:00:00 10,0 8,0 5 3 W 9
21.02.2019 20:00:00 10,0 8,0 8 4 WNW 10
21.02.2019 19:00:00 12,0 9,0 2 1 - 10
21.02.2019 18:00:00 14,0 9,0 9 5 ESE 10
21.02.2019 17:00:00 16,0 9,0 15 8 ESE 10
21.02.2019 16:00:00 16,0 9,0 13 7 E 10
21.02.2019 15:00:00 17,0 6,0 8 4 SSE 10
21.02.2019 14:00:00 16,0 6,0 9 5 SSW 9
21.02.2019 13:00:00 15,0 7,0 4 2 S 8
21.02.2019 12:00:00 14,0 7,0 2 1 S 8
21.02.2019 11:00:00 10,0 6,0 4 2 - 7
21.02.2019 10:00:00 7,0 4,0 2 1 SE 6
21.02.2019 09:00:00 3,0 3,0 2 1 W 6
21.02.2019 08:00:00 2,0 1,0 8 4 WNW 5
21.02.2019 07:00:00 2,0 2,0 0 0 N 5
21.02.2019 06:00:00 2,0 1,0 4 2 WNW 6
21.02.2019 05:00:00 2,0 2,0 5 3 W 6
21.02.2019 04:00:00 2,0 1,0 5 3 W 6
21.02.2019 03:00:00 3,0 2,0 4 2 WNW 9
21.02.2019 02:00:00 3,0 3,0 5 3 W 7
21.02.2019 01:00:00 4,0 3,0 8 4 W 9
21.02.2019 00:00:00 4,0 3,0 8 4 WNW 10
20.02.2019 23:00:00 6,0 4,0 4 2 WNW 10
20.02.2019 22:00:00 7,0 4,0 9 5 WNW 10
20.02.2019 21:00:00 9,0 5,0 4 2 - 10
20.02.2019 20:00:00 10,0 6,0 5 3 NW 10
20.02.2019 19:00:00 11,0 6,0 5 3 S 10
20.02.2019 18:00:00 13,0 5,0 11 6 SSE 10
20.02.2019 17:00:00 15,0 5,0 8 4 SW 10
20.02.2019 16:00:00 15,0 5,0 4 2 - 10
20.02.2019 15:00:00 14,0 5,0 2 1 S 10
20.02.2019 14:00:00 13,0 5,0 4 2 - 10
20.02.2019 13:00:00 13,0 6,0 5 3 SSW 10
20.02.2019 12:00:00 13,0 8,0 0 0 N 9
20.02.2019 11:00:00 12,0 8,0 2 1 SE 6
20.02.2019 10:00:00 11,0 8,0 0 0 N 6
20.02.2019 09:00:00 9,0 8,0 0 0 N 6
20.02.2019 08:00:00 8,0 7,0 2 1 W 6
20.02.2019 07:00:00 9,0 7,0 0 0 N 8
20.02.2019 06:00:00 9,0 8,0 0 0 N 9
20.02.2019 05:00:00 9,0 8,0 0 0 N 8
20.02.2019 04:00:00 9,0 8,0 2 1 - 8
20.02.2019 03:00:00 10,0 8,0 0 0 N 10
20.02.2019 02:00:00 10,0 8,0 4 2 SE 10
20.02.2019 01:00:00 9,0 8,0 0 0 N 10
20.02.2019 00:00:00 9,0 7,0 8 4 W 10
19.02.2019 23:00:00 8,0 7,0 9 5 W 10
19.02.2019 22:00:00 7,0 6,0 9 5 WNW 10
19.02.2019 21:00:00 8,0 6,0 9 5 WNW 10
19.02.2019 20:00:00 10,0 7,0 2 1 SSE 10
19.02.2019 19:00:00 11,0 8,0 9 5 ESE 10
19.02.2019 18:00:00 13,0 7,0 15 8 ESE 10
19.02.2019 17:00:00 14,0 6,0 13 7 SE 10
19.02.2019 16:00:00 14,0 7,0 13 7 SE 10
19.02.2019 15:00:00 15,0 7,0 13 7 SE 10
19.02.2019 14:00:00 14,0 7,0 11 6 SSE 10
19.02.2019 13:00:00 14,0 7,0 9 5 ESE 10
19.02.2019 12:00:00 13,0 7,0 2 1 - 10
19.02.2019 11:00:00 12,0 7,0 0 0 N 10
19.02.2019 10:00:00 9,0 6,0 0 0 N 9
19.02.2019 09:00:00 7,0 5,0 0 0 N 10
19.02.2019 08:00:00 5,0 4,0 0 0 N 10
19.02.2019 07:00:00 5,0 4,0 8 4 WNW 10
19.02.2019 06:00:00 4,0 3,0 9 5 WNW 8
19.02.2019 05:00:00 5,0 4,0 5 3 WNW 10
19.02.2019 04:00:00 6,0 5,0 4 2 WNW 10
19.02.2019 03:00:00 6,0 5,0 8 4 W 7
19.02.2019 02:00:00 7,0 6,0 9 5 WNW 7
19.02.2019 01:00:00 9,0 8,0 0 0 N 9
19.02.2019 00:00:00 11,0 9,0 2 1 - 10
18.02.2019 23:00:00 11,0 9,0 5 3 NNE 10
18.02.2019 22:00:00 11,0 9,0 8 4 NE 10
18.02.2019 21:00:00 10,0 9,0 0 0 N 10
18.02.2019 20:00:00 10,0 8,0 0 0 N 10
18.02.2019 19:00:00 11,0 9,0 9 5 ESE 10
18.02.2019 18:00:00 13,0 9,0 13 7 ESE 10
18.02.2019 17:00:00 14,0 9,0 15 8 SE 10
18.02.2019 16:00:00 15,0 9,0 13 7 SE 10
18.02.2019 15:00:00 15,0 8,0 9 5 SSE 10
18.02.2019 14:00:00 15,0 8,0 5 3 SE 10
18.02.2019 13:00:00 14,0 7,0 5 3 ENE 10
18.02.2019 12:00:00 13,0 7,0 2 1 NE 10
18.02.2019 11:00:00 11,0 5,0 0 0 N 10
18.02.2019 10:00:00 6,0 3,0 2 1 - 9
18.02.2019 09:00:00 3,0 2,0 5 3 W 8
18.02.2019 08:00:00 1,0 0,0 8 4 WNW 8
18.02.2019 07:00:00 1,0 1,0 2 1 - 6
18.02.2019 06:00:00 1,0 0,0 4 2 WNW 10
18.02.2019 05:00:00 3,0 1,0 4 2 - 10
18.02.2019 04:00:00 2,0 1,0 8 4 WNW 10
18.02.2019 03:00:00 4,0 3,0 8 4 WNW 8
18.02.2019 02:00:00 4,0 4,0 4 2 W 5
18.02.2019 01:00:00 5,0 4,0 4 2 WNW 3,5
18.02.2019 00:00:00 5,0 5,0 8 4 WNW 3,3
17.02.2019 23:00:00 5,0 5,0 9 5 WNW 3,7

tt = Température de l'air
td = dewpoint
ff = Vitesse du vent
dd = Direction du vent
vv = visibility

stations d'obs. à proximité